createdAt,value
2019-02-11T06:00:35.523Z,2.93
2019-02-11T06:43:27.312Z,2.10
2019-02-11T06:45:50.747Z,3.10
2019-02-11T06:48:13.540Z,2.57
2019-02-11T07:19:52.100Z,2.70
2019-02-11T07:22:07.574Z,2.70
2019-02-11T07:24:13.176Z,3.13
2019-02-11T07:26:23.241Z,3.07
2019-02-11T07:28:36.701Z,2.40
2019-02-11T07:31:11.071Z,3.90
2019-02-11T07:33:28.027Z,3.43
2019-02-11T07:35:46.687Z,3.23
2019-02-11T07:38:13.206Z,3.03
2019-02-11T07:40:57.908Z,4.00
2019-02-11T07:43:40.160Z,2.17
2019-02-11T07:49:27.236Z,2.77
2019-02-11T07:52:16.854Z,3.37
2019-02-11T07:54:28.773Z,3.20
2019-02-11T09:39:09.066Z,4.00
2019-02-11T09:41:29.926Z,3.30
2019-02-11T09:46:18.732Z,3.00
2019-02-11T09:48:40.590Z,3.73
2019-02-11T09:51:08.901Z,4.07
2019-02-11T09:53:58.678Z,3.40
2019-02-11T09:56:19.663Z,3.50
2019-02-11T09:59:05.216Z,2.87
2019-02-11T11:16:01.108Z,2.30
2019-02-11T11:18:12.626Z,2.30
2019-02-11T11:20:23.664Z,3.00
2019-02-11T11:22:31.184Z,3.03
2019-02-11T11:24:37.492Z,1.60
2019-02-11T11:26:49.727Z,2.00
2019-02-11T11:29:07.075Z,2.10
2019-02-11T11:31:27.762Z,2.63
2019-02-11T11:33:42.867Z,2.03
2019-02-11T11:36:00.944Z,2.20
2019-02-11T11:38:12.990Z,3.40
2019-02-11T11:40:25.325Z,2.93
2019-02-11T11:42:38.797Z,2.10
2019-02-11T11:44:57.954Z,2.80
2019-02-11T11:47:15.982Z,2.20
2019-02-11T11:49:26.372Z,2.97
2019-02-11T11:51:45.196Z,3.47
2019-02-11T11:53:59.578Z,1.87
2019-02-11T11:56:07.171Z,2.13
2019-02-11T11:58:14.425Z,2.67
2019-02-11T12:00:30.802Z,2.43
2019-02-11T12:06:25.965Z,2.80
2019-02-11T12:09:25.089Z,2.40
2019-02-11T12:45:29.657Z,2.27
2019-02-11T12:47:40.011Z,2.07
2019-02-11T12:50:08.454Z,1.27
2019-02-11T12:52:19.005Z,1.57
2019-02-11T12:54:29.349Z,1.60
2019-02-11T12:56:43.789Z,2.10
2019-02-11T12:59:03.440Z,1.97
2019-02-11T13:01:12.054Z,1.80
2019-02-11T13:06:32.122Z,1.73
2019-02-11T13:12:01.862Z,2.00
2019-02-11T13:14:58.731Z,2.03
2019-02-11T13:17:35.149Z,2.27
2019-02-11T13:20:37.123Z,2.13
2019-02-11T13:23:26.796Z,3.90
2019-02-11T13:38:22.247Z,2.97
2019-02-11T13:40:26.699Z,3.00
2019-02-11T13:42:41.695Z,3.30
2019-02-11T13:44:52.726Z,2.43
2019-02-11T13:47:11.536Z,2.67
2019-02-11T13:49:25.866Z,3.33
2019-02-11T13:51:45.973Z,1.87
2019-02-11T13:54:10.447Z,1.40
2019-02-11T13:56:12.432Z,2.10
2019-02-11T13:58:19.925Z,2.23
2019-02-11T14:00:38.859Z,2.00
2019-02-11T14:03:06.629Z,1.93
2019-02-11T15:37:35.849Z,3.30
2019-02-11T15:40:06.535Z,3.30
2019-02-11T15:42:30.089Z,2.27
2019-02-11T15:47:23.186Z,1.70
2019-02-11T15:49:40.573Z,1.90
2019-02-11T15:51:51.018Z,2.70
2019-02-11T15:53:55.573Z,3.43
2019-02-11T15:56:07.470Z,2.80
2019-02-11T15:58:05.977Z,2.80
2019-02-11T16:00:24.582Z,3.17
2019-02-11T16:02:38.243Z,3.03
2019-02-11T16:05:02.088Z,2.37
2019-02-11T16:06:58.899Z,4.20
2019-02-11T16:09:41.656Z,3.83
2019-02-11T16:11:21.952Z,2.23
2019-02-11T16:13:52.226Z,3.40
2019-02-11T16:15:56.700Z,2.80
2019-02-11T16:18:33.749Z,3.87
2019-02-11T16:20:58.749Z,2.83
2019-02-11T16:23:16.809Z,2.63
2019-02-11T16:25:39.756Z,2.93
2019-02-11T16:27:58.067Z,3.20
2019-02-11T16:30:03.893Z,3.73
2019-02-11T16:32:12.188Z,2.37
2019-02-11T16:34:16.530Z,2.77
2019-02-11T17:09:26.195Z,3.67
2019-02-11T17:11:37.093Z,4.00
2019-02-11T17:13:49.289Z,4.00
2019-02-11T17:15:55.059Z,3.77
2019-02-11T17:18:04.669Z,3.93
2019-02-11T17:20:20.233Z,5.33
2019-02-11T17:22:26.597Z,3.47
2019-02-11T17:24:35.680Z,3.53
2019-02-11T17:26:47.961Z,4.23
2019-02-11T17:29:03.398Z,4.13
2019-02-11T17:31:33.281Z,6.13
2019-02-11T17:33:56.191Z,5.40
2019-02-11T17:38:58.260Z,4.00
2019-02-11T17:41:08.680Z,5.03
2019-02-11T17:43:32.743Z,5.70
2019-02-11T17:45:42.082Z,4.60
2019-02-11T17:47:56.291Z,4.33
2019-02-11T17:50:17.367Z,4.23
2019-02-11T18:30:33.136Z,3.30
2019-02-11T18:32:47.590Z,4.00
2019-02-11T18:34:53.144Z,4.20
2019-02-11T18:37:51.886Z,3.40
2019-02-11T18:40:18.947Z,3.60
2019-02-11T18:43:09.641Z,4.33
2019-02-11T18:45:57.127Z,3.63
2019-02-11T18:48:43.675Z,4.83
2019-02-11T18:51:20.165Z,3.93
2019-02-11T18:53:24.408Z,4.60
2019-02-11T18:55:45.953Z,4.37
2019-02-11T18:57:56.055Z,4.70
2019-02-11T19:00:14.467Z,5.20
2019-02-11T19:02:26.872Z,4.73
2019-02-11T19:04:39.047Z,4.10
2019-02-11T19:06:47.346Z,4.03
2019-02-11T19:12:32.874Z,4.70
2019-02-11T19:18:42.250Z,5.47
2019-02-11T19:24:03.404Z,3.60
2019-02-11T19:26:10.884Z,4.73
2019-02-11T19:28:18.021Z,4.73
2019-02-11T19:30:22.881Z,5.90
2019-02-11T19:32:27.361Z,4.60
2019-02-11T19:34:34.964Z,4.00
2019-02-11T19:36:39.640Z,4.10
2019-02-11T19:39:18.505Z,3.90
2019-02-11T19:43:00.929Z,3.67
2019-02-11T19:44:50.635Z,3.50
2019-02-11T19:47:17.537Z,4.20
2019-02-11T19:49:34.228Z,4.83
2019-02-11T19:51:52.344Z,4.30
2019-02-11T19:53:58.627Z,4.27
2019-02-11T19:56:05.570Z,4.63
2019-02-11T19:58:13.252Z,4.70
2019-02-11T20:00:20.515Z,4.47
2019-02-11T20:02:27.710Z,4.40
2019-02-11T20:04:35.454Z,3.77
2019-02-11T20:06:42.552Z,3.50
2019-02-11T20:08:49.821Z,4.60
2019-02-11T20:10:54.516Z,2.97
2019-02-11T20:13:04.151Z,3.60
2019-02-11T20:15:16.467Z,3.83
2019-02-11T20:17:25.440Z,3.23
2019-02-11T20:19:37.788Z,3.50
2019-02-11T20:29:08.906Z,2.97
2019-02-11T20:38:36.622Z,4.93
2019-02-11T20:40:38.155Z,5.43
2019-02-11T20:42:55.516Z,3.40
2019-02-11T20:45:12.525Z,2.67
2019-02-11T20:47:33.586Z,3.47
2019-02-11T20:49:37.616Z,2.67
2019-02-11T20:51:47.559Z,2.50
2019-02-11T20:53:57.809Z,2.63
2019-02-11T20:56:05.003Z,3.20
2019-02-11T20:58:17.308Z,1.90
2019-02-11T21:00:31.585Z,2.80
2019-02-11T21:02:54.326Z,2.20
2019-02-11T21:05:15.377Z,2.30
2019-02-11T21:07:33.354Z,3.57
2019-02-11T21:09:39.638Z,2.77
2019-02-11T21:11:57.324Z,3.80
2019-02-11T21:14:10.043Z,2.93
2019-02-11T21:16:18.081Z,2.70
2019-02-11T21:18:25.295Z,2.57
2019-02-11T21:20:45.806Z,2.57
2019-02-11T21:23:03.422Z,2.53
2019-02-11T21:25:20.059Z,2.60
2019-02-11T21:27:52.845Z,2.50
2019-02-11T21:30:04.814Z,2.70
2019-02-11T21:32:15.092Z,4.83
2019-02-11T21:34:33.969Z,2.23
2019-02-11T21:36:59.442Z,2.93
2019-02-11T21:39:18.788Z,3.80
2019-02-11T21:41:38.150Z,2.97
2019-02-11T21:43:48.388Z,2.37
2019-02-11T21:46:17.652Z,3.50
2019-02-11T21:48:37.595Z,3.57
2019-02-11T21:50:55.213Z,3.67
2019-02-11T21:53:06.252Z,2.77
2019-02-11T21:55:24.227Z,3.17
2019-02-11T21:57:44.273Z,2.17
2019-02-11T22:00:08.639Z,2.67
2019-02-11T22:02:24.983Z,1.87
2019-02-11T22:04:49.041Z,3.30
2019-02-11T22:07:20.722Z,3.13
2019-02-11T22:09:35.539Z,2.90
2019-02-11T22:11:51.879Z,2.50
2019-02-11T22:13:59.501Z,2.33
2019-02-11T22:16:16.885Z,3.83
2019-02-11T22:18:34.886Z,2.20
2019-02-11T22:20:54.005Z,3.70
2019-02-11T22:23:18.976Z,3.40
2019-02-11T22:25:21.273Z,2.47
2019-02-11T22:27:48.243Z,2.60
2019-02-11T22:30:01.130Z,2.20
2019-02-11T22:32:26.388Z,2.93
2019-02-11T22:34:38.201Z,1.87
2019-02-11T22:36:53.969Z,3.07
2019-02-11T22:39:30.196Z,2.67
2019-02-11T22:42:05.236Z,3.73
2019-02-11T22:44:10.788Z,3.07
2019-02-11T22:46:31.897Z,2.83
2019-02-11T22:48:43.530Z,2.60
2019-02-11T22:50:59.053Z,3.20
2019-02-11T22:53:27.774Z,2.97
2019-02-11T22:55:40.173Z,4.37
2019-02-11T22:58:02.791Z,3.30
2019-02-11T23:00:25.291Z,3.63
2019-02-11T23:02:34.730Z,2.47
2019-02-11T23:04:59.855Z,2.80
2019-02-11T23:07:18.133Z,2.60
2019-02-11T23:09:35.173Z,3.60
2019-02-11T23:12:00.096Z,3.33
2019-02-11T23:14:30.675Z,2.27
2019-02-11T23:16:50.389Z,4.10
2019-02-11T23:19:23.375Z,3.63
2019-02-11T23:21:44.400Z,2.77
2019-02-11T23:24:00.001Z,2.70
2019-02-11T23:26:17.938Z,2.23
2019-02-11T23:28:27.030Z,2.97
2019-02-11T23:30:43.000Z,2.60
2019-02-11T23:32:51.423Z,2.67
2019-02-11T23:35:00.768Z,2.47
2019-02-11T23:37:14.368Z,2.43
2019-02-11T23:39:34.011Z,3.10
2019-02-11T23:41:42.127Z,2.43
2019-02-11T23:43:51.527Z,3.33
2019-02-11T23:46:06.041Z,3.60
2019-02-11T23:48:08.847Z,3.10
2019-02-11T23:50:18.869Z,1.73
2019-02-11T23:52:28.859Z,2.40
2019-02-11T23:54:41.402Z,2.53
2019-02-11T23:56:55.245Z,1.90
2019-02-11T23:59:14.703Z,2.43
